Sault Ste Marie, Canada
Current Conditions -  °F | °C
As of 6:24 PM on Tuesday 25 Nov 2014 (Local Time) from KANJ Reporting Station
Light Snow Light Snow  
Wind Chill: 17°   Ceiling: 3300
Heat Index: 27°   Visibility: 5mi
Dew Point: 21°   Wind: 10mph
Humidity: 78%   Direction: 280°W
Pressure: 29.98"   Gusts: NA
Location:  46.52°N, 84.35°W
Report Text: KANJ 252324Z AUTO 28009KT 5SM -SN FEW016 BKN033 OVC042 M03/M06 A2998 RMK AO2 PRESFR P0001 T10281061
Loading
Personal Weather Stations






























Interactive Weather Map New forecast layout! Learn more

10-Day Weather Forecast

Advertisements
Track Severe Weather on mobile